sensor_id;sensor_type;location;lat;lon;timestamp;P1;durP1;ratioP1;P2;durP2;ratioP2
61570;SDS011;47463;49.884;10.010;2023-06-22T00:00:00;18.5;;;16.6;;
61570;SDS011;47463;49.884;10.010;2023-06-22T00:05:00;20.9;;;16.2;;
61570;SDS011;47463;49.884;10.010;2023-06-22T00:10:00;20.9;;;16.2;;
61570;SDS011;47463;49.884;10.010;2023-06-22T00:15:00;19.4;;;16.6;;
61570;SDS011;47463;49.884;10.010;2023-06-22T00:20:00;19.7;;;16.5;;
61570;SDS011;47463;49.884;10.010;2023-06-22T00:25:00;20.3;;;17.6;;
61570;SDS011;47463;49.884;10.010;2023-06-22T00:30:00;20.8;;;18.1;;
61570;SDS011;47463;49.884;10.010;2023-06-22T00:35:00;22;;;19;;
61570;SDS011;47463;49.884;10.010;2023-06-22T00:40:03;22;;;19;;
61570;SDS011;47463;49.884;10.010;2023-06-22T00:45:00;29.4;;;25.1;;
61570;SDS011;47463;49.884;10.010;2023-06-22T00:50:00;29.8;;;26.3;;
61570;SDS011;47463;49.884;10.010;2023-06-22T00:55:00;31.4;;;28;;
61570;SDS011;47463;49.884;10.010;2023-06-22T01:00:00;28.2;;;25.1;;
61570;SDS011;47463;49.884;10.010;2023-06-22T01:05:00;34.3;;;29;;
61570;SDS011;47463;49.884;10.010;2023-06-22T01:10:02;34.3;;;29;;
61570;SDS011;47463;49.884;10.010;2023-06-22T01:15:02;37.1;;;27.5;;
61570;SDS011;47463;49.884;10.010;2023-06-22T01:20:00;33.5;;;28.3;;
61570;SDS011;47463;49.884;10.010;2023-06-22T01:25:01;32.8;;;26.7;;
61570;SDS011;47463;49.884;10.010;2023-06-22T01:30:00;27.8;;;24.7;;
61570;SDS011;47463;49.884;10.010;2023-06-22T01:35:00;25.9;;;22.7;;
61570;SDS011;47463;49.884;10.010;2023-06-22T01:40:00;25.9;;;22.7;;
61570;SDS011;47463;49.884;10.010;2023-06-22T01:45:00;28.9;;;22.8;;
61570;SDS011;47463;49.884;10.010;2023-06-22T01:50:00;30.5;;;22.5;;
61570;SDS011;47463;49.884;10.010;2023-06-22T01:55:00;26.4;;;22.3;;
61570;SDS011;47463;49.884;10.010;2023-06-22T02:00:00;25.3;;;20.2;;
61570;SDS011;47463;49.884;10.010;2023-06-22T02:05:01;23.9;;;21;;
61570;SDS011;47463;49.884;10.010;2023-06-22T02:10:00;23.9;;;21;;
61570;SDS011;47463;49.884;10.010;2023-06-22T02:15:00;25.9;;;19.9;;
61570;SDS011;47463;49.884;10.010;2023-06-22T02:20:00;26.2;;;20.3;;
61570;SDS011;47463;49.884;10.010;2023-06-22T02:25:00;26.3;;;21.6;;
61570;SDS011;47463;49.884;10.010;2023-06-22T02:30:00;25.9;;;22.7;;
61570;SDS011;47463;49.884;10.010;2023-06-22T02:35:00;26.9;;;22.8;;
61570;SDS011;47463;49.884;10.010;2023-06-22T02:40:00;26.9;;;22.8;;
61570;SDS011;47463;49.884;10.010;2023-06-22T02:45:00;28.2;;;24.5;;
61570;SDS011;47463;49.884;10.010;2023-06-22T02:50:00;33.1;;;27.1;;
61570;SDS011;47463;49.884;10.010;2023-06-22T02:55:00;35.5;;;29.1;;
61570;SDS011;47463;49.884;10.010;2023-06-22T03:00:01;38.3;;;30.6;;
61570;SDS011;47463;49.884;10.010;2023-06-22T03:05:00;37.3;;;29.1;;
61570;SDS011;47463;49.884;10.010;2023-06-22T03:10:00;37.3;;;29.1;;
61570;SDS011;47463;49.884;10.010;2023-06-22T03:15:00;31.4;;;27.9;;
61570;SDS011;47463;49.884;10.010;2023-06-22T03:20:00;32.3;;;28.4;;
61570;SDS011;47463;49.884;10.010;2023-06-22T03:25:00;30.8;;;27.4;;
61570;SDS011;47463;49.884;10.010;2023-06-22T03:30:00;31.3;;;26.7;;
61570;SDS011;47463;49.884;10.010;2023-06-22T03:35:00;31.5;;;26.5;;
61570;SDS011;47463;49.884;10.010;2023-06-22T03:40:00;31.5;;;26.5;;
61570;SDS011;47463;49.884;10.010;2023-06-22T03:45:00;32.8;;;26.7;;
61570;SDS011;47463;49.884;10.010;2023-06-22T03:50:00;28.7;;;24.9;;
61570;SDS011;47463;49.884;10.010;2023-06-22T03:55:00;29.6;;;26.3;;
61570;SDS011;47463;49.884;10.010;2023-06-22T04:00:00;28.5;;;25.4;;
61570;SDS011;47463;49.884;10.010;2023-06-22T04:05:00;33;;;26.9;;
61570;SDS011;47463;49.884;10.010;2023-06-22T04:10:00;33;;;26.9;;
61570;SDS011;47463;49.884;10.010;2023-06-22T04:15:00;33.7;;;26.4;;
61570;SDS011;47463;49.884;10.010;2023-06-22T04:20:00;29.3;;;26.1;;
61570;SDS011;47463;49.884;10.010;2023-06-22T04:25:00;29;;;24.7;;
61570;SDS011;47463;49.884;10.010;2023-06-22T04:30:00;30.4;;;24.6;;
61570;SDS011;47463;49.884;10.010;2023-06-22T04:35:00;25;;;22.3;;
61570;SDS011;47463;49.884;10.010;2023-06-22T04:40:00;25;;;22.3;;
61570;SDS011;47463;49.884;10.010;2023-06-22T04:45:00;24.5;;;21.7;;
61570;SDS011;47463;49.884;10.010;2023-06-22T04:50:00;25;;;20.8;;
61570;SDS011;47463;49.884;10.010;2023-06-22T04:55:00;24.2;;;21.6;;
61570;SDS011;47463;49.884;10.010;2023-06-22T05:00:00;23.2;;;20.9;;
61570;SDS011;47463;49.884;10.010;2023-06-22T05:05:00;24.7;;;21.6;;
61570;SDS011;47463;49.884;10.010;2023-06-22T05:10:00;24.7;;;21.6;;
61570;SDS011;47463;49.884;10.010;2023-06-22T05:15:00;23.2;;;20.5;;
61570;SDS011;47463;49.884;10.010;2023-06-22T05:20:00;24.6;;;21.7;;
61570;SDS011;47463;49.884;10.010;2023-06-22T05:25:00;24.2;;;20.9;;
61570;SDS011;47463;49.884;10.010;2023-06-22T05:30:00;26.2;;;22.3;;
61570;SDS011;47463;49.884;10.010;2023-06-22T05:35:00;22.8;;;20.3;;
61570;SDS011;47463;49.884;10.010;2023-06-22T05:40:00;22.8;;;20.3;;
61570;SDS011;47463;49.884;10.010;2023-06-22T05:45:00;23.4;;;20.7;;
61570;SDS011;47463;49.884;10.010;2023-06-22T05:50:00;22.2;;;20;;
61570;SDS011;47463;49.884;10.010;2023-06-22T05:55:01;23.7;;;20.5;;
61570;SDS011;47463;49.884;10.010;2023-06-22T06:00:00;22;;;19.7;;
61570;SDS011;47463;49.884;10.010;2023-06-22T06:05:00;22.6;;;20.2;;
61570;SDS011;47463;49.884;10.010;2023-06-22T06:10:00;22.6;;;20.2;;
61570;SDS011;47463;49.884;10.010;2023-06-22T06:15:00;22.1;;;19.9;;
61570;SDS011;47463;49.884;10.010;2023-06-22T06:20:00;23.3;;;20.8;;
61570;SDS011;47463;49.884;10.010;2023-06-22T06:25:00;23.2;;;20.9;;
61570;SDS011;47463;49.884;10.010;2023-06-22T06:30:00;23.9;;;21.4;;
61570;SDS011;47463;49.884;10.010;2023-06-22T06:35:00;23.2;;;20.8;;
61570;SDS011;47463;49.884;10.010;2023-06-22T06:40:00;23.2;;;20.8;;
61570;SDS011;47463;49.884;10.010;2023-06-22T06:45:00;23.1;;;20.5;;
61570;SDS011;47463;49.884;10.010;2023-06-22T06:50:00;23;;;20.3;;
61570;SDS011;47463;49.884;10.010;2023-06-22T06:55:00;23.3;;;20.8;;
61570;SDS011;47463;49.884;10.010;2023-06-22T07:00:00;25.6;;;20.4;;
61570;SDS011;47463;49.884;10.010;2023-06-22T07:05:00;21.4;;;19.3;;
61570;SDS011;47463;49.884;10.010;2023-06-22T07:10:00;21.4;;;19.3;;
61570;SDS011;47463;49.884;10.010;2023-06-22T07:15:02;22.3;;;20;;
61570;SDS011;47463;49.884;10.010;2023-06-22T07:20:00;21.3;;;19;;
61570;SDS011;47463;49.884;10.010;2023-06-22T07:25:00;24.4;;;21.6;;
61570;SDS011;47463;49.884;10.010;2023-06-22T07:30:00;22.1;;;19.8;;
61570;SDS011;47463;49.884;10.010;2023-06-22T07:35:00;23.7;;;20.3;;
61570;SDS011;47463;49.884;10.010;2023-06-22T07:40:00;23.7;;;20.3;;
61570;SDS011;47463;49.884;10.010;2023-06-22T07:45:00;20.9;;;18.4;;
61570;SDS011;47463;49.884;10.010;2023-06-22T07:50:00;21.5;;;19.4;;
61570;SDS011;47463;49.884;10.010;2023-06-22T07:55:00;21.7;;;19.4;;
61570;SDS011;47463;49.884;10.010;2023-06-22T08:00:00;23.1;;;20.9;;
61570;SDS011;47463;49.884;10.010;2023-06-22T08:05:00;23.1;;;20.7;;
61570;SDS011;47463;49.884;10.010;2023-06-22T08:10:00;23.1;;;20.7;;
61570;SDS011;47463;49.884;10.010;2023-06-22T08:15:00;22.1;;;19.8;;
61570;SDS011;47463;49.884;10.010;2023-06-22T08:20:00;24.6;;;20.8;;
61570;SDS011;47463;49.884;10.010;2023-06-22T08:25:00;22.1;;;19.8;;
61570;SDS011;47463;49.884;10.010;2023-06-22T08:30:00;22.3;;;19.9;;
61570;SDS011;47463;49.884;10.010;2023-06-22T08:35:00;24;;;21.7;;
61570;SDS011;47463;49.884;10.010;2023-06-22T08:40:00;24;;;21.7;;
61570;SDS011;47463;49.884;10.010;2023-06-22T08:45:00;19.2;;;17.2;;
61570;SDS011;47463;49.884;10.010;2023-06-22T08:50:00;14.7;;;12.9;;
61570;SDS011;47463;49.884;10.010;2023-06-22T08:55:00;19;;;16;;
61570;SDS011;47463;49.884;10.010;2023-06-22T09:00:00;15.6;;;13.2;;
61570;SDS011;47463;49.884;10.010;2023-06-22T09:05:03;17.9;;;15.1;;
61570;SDS011;47463;49.884;10.010;2023-06-22T09:10:00;17.9;;;15.1;;
61570;SDS011;47463;49.884;10.010;2023-06-22T09:15:00;18.4;;;14.3;;
61570;SDS011;47463;49.884;10.010;2023-06-22T09:20:00;14.8;;;11.5;;
61570;SDS011;47463;49.884;10.010;2023-06-22T09:25:00;15.8;;;13.3;;
61570;SDS011;47463;49.884;10.010;2023-06-22T09:30:00;14.9;;;12.7;;
61570;SDS011;47463;49.884;10.010;2023-06-22T09:35:03;17.6;;;13.2;;
61570;SDS011;47463;49.884;10.010;2023-06-22T09:40:00;17.6;;;13.2;;
61570;SDS011;47463;49.884;10.010;2023-06-22T09:45:00;14;;;11.7;;
61570;SDS011;47463;49.884;10.010;2023-06-22T09:50:00;13.8;;;12.3;;
61570;SDS011;47463;49.884;10.010;2023-06-22T09:55:00;15.8;;;12.8;;
61570;SDS011;47463;49.884;10.010;2023-06-22T10:00:00;14.8;;;12.2;;
61570;SDS011;47463;49.884;10.010;2023-06-22T10:05:00;14.1;;;11.8;;
61570;SDS011;47463;49.884;10.010;2023-06-22T10:10:00;14.1;;;11.8;;
61570;SDS011;47463;49.884;10.010;2023-06-22T10:15:00;14.6;;;12.3;;
61570;SDS011;47463;49.884;10.010;2023-06-22T10:20:00;12;;;10.3;;
61570;SDS011;47463;49.884;10.010;2023-06-22T10:25:00;12.7;;;10.3;;
61570;SDS011;47463;49.884;10.010;2023-06-22T10:30:00;12.6;;;10.3;;
61570;SDS011;47463;49.884;10.010;2023-06-22T10:35:00;13;;;9.5;;
61570;SDS011;47463;49.884;10.010;2023-06-22T10:40:00;13;;;9.5;;
61570;SDS011;47463;49.884;10.010;2023-06-22T10:45:00;13.4;;;10.8;;
61570;SDS011;47463;49.884;10.010;2023-06-22T10:50:00;15.3;;;10.1;;
61570;SDS011;47463;49.884;10.010;2023-06-22T10:55:00;13.7;;;9.6;;
61570;SDS011;47463;49.884;10.010;2023-06-22T11:00:00;11.2;;;10;;
61570;SDS011;47463;49.884;10.010;2023-06-22T11:05:00;12.5;;;9.2;;
61570;SDS011;47463;49.884;10.010;2023-06-22T11:10:00;12.5;;;9.2;;
61570;SDS011;47463;49.884;10.010;2023-06-22T11:15:00;12.6;;;9.7;;
61570;SDS011;47463;49.884;10.010;2023-06-22T11:20:00;14.3;;;10;;
61570;SDS011;47463;49.884;10.010;2023-06-22T11:25:00;15.5;;;9.5;;
61570;SDS011;47463;49.884;10.010;2023-06-22T11:30:00;11.1;;;9.6;;
61570;SDS011;47463;49.884;10.010;2023-06-22T11:35:00;13.7;;;10.1;;
61570;SDS011;47463;49.884;10.010;2023-06-22T11:40:00;13.7;;;10.1;;
61570;SDS011;47463;49.884;10.010;2023-06-22T11:45:00;12.7;;;9;;
61570;SDS011;47463;49.884;10.010;2023-06-22T11:50:00;14.2;;;9.5;;
61570;SDS011;47463;49.884;10.010;2023-06-22T11:55:00;18;;;9.3;;
61570;SDS011;47463;49.884;10.010;2023-06-22T12:00:00;14;;;8.9;;
61570;SDS011;47463;49.884;10.010;2023-06-22T12:05:00;15.7;;;9.5;;
61570;SDS011;47463;49.884;10.010;2023-06-22T12:10:00;15.7;;;9.5;;
61570;SDS011;47463;49.884;10.010;2023-06-22T12:15:00;13.6;;;9.3;;
61570;SDS011;47463;49.884;10.010;2023-06-22T12:20:00;15.9;;;9.6;;
61570;SDS011;47463;49.884;10.010;2023-06-22T12:25:00;13.6;;;9.8;;
61570;SDS011;47463;49.884;10.010;2023-06-22T12:30:00;16.4;;;9.5;;
61570;SDS011;47463;49.884;10.010;2023-06-22T12:35:00;17.1;;;9.6;;
61570;SDS011;47463;49.884;10.010;2023-06-22T12:40:00;17.1;;;9.6;;
61570;SDS011;47463;49.884;10.010;2023-06-22T12:45:00;19.5;;;10;;
61570;SDS011;47463;49.884;10.010;2023-06-22T12:50:00;16.8;;;9.1;;
61570;SDS011;47463;49.884;10.010;2023-06-22T12:55:00;16.9;;;9.4;;
61570;SDS011;47463;49.884;10.010;2023-06-22T13:00:00;18.5;;;8.9;;
61570;SDS011;47463;49.884;10.010;2023-06-22T13:05:00;17.1;;;9.2;;
61570;SDS011;47463;49.884;10.010;2023-06-22T13:10:00;17.1;;;9.2;;
61570;SDS011;47463;49.884;10.010;2023-06-22T13:15:00;16.6;;;8.9;;
61570;SDS011;47463;49.884;10.010;2023-06-22T13:20:00;18.7;;;10.5;;
61570;SDS011;47463;49.884;10.010;2023-06-22T13:25:00;18.7;;;9.3;;
61570;SDS011;47463;49.884;10.010;2023-06-22T13:30:00;18.1;;;9.7;;
61570;SDS011;47463;49.884;10.010;2023-06-22T13:35:00;16.2;;;8.9;;
61570;SDS011;47463;49.884;10.010;2023-06-22T13:40:00;16.2;;;8.9;;
61570;SDS011;47463;49.884;10.010;2023-06-22T13:45:00;17.6;;;9;;
61570;SDS011;47463;49.884;10.010;2023-06-22T13:50:00;16.7;;;9.3;;
61570;SDS011;47463;49.884;10.010;2023-06-22T13:55:00;15.4;;;9.4;;
61570;SDS011;47463;49.884;10.010;2023-06-22T14:00:00;13.9;;;9.6;;
61570;SDS011;47463;49.884;10.010;2023-06-22T14:05:00;15.2;;;9.3;;
61570;SDS011;47463;49.884;10.010;2023-06-22T14:10:00;15.2;;;9.3;;
61570;SDS011;47463;49.884;10.010;2023-06-22T14:15:00;16.1;;;8.3;;
61570;SDS011;47463;49.884;10.010;2023-06-22T14:20:00;18.6;;;9.2;;
61570;SDS011;47463;49.884;10.010;2023-06-22T14:25:00;16.7;;;9.6;;
61570;SDS011;47463;49.884;10.010;2023-06-22T14:30:00;16.7;;;10;;
61570;SDS011;47463;49.884;10.010;2023-06-22T14:35:00;17;;;9.1;;
61570;SDS011;47463;49.884;10.010;2023-06-22T14:40:00;17;;;9.1;;
61570;SDS011;47463;49.884;10.010;2023-06-22T14:45:00;19.9;;;9.7;;
61570;SDS011;47463;49.884;10.010;2023-06-22T14:50:00;16.5;;;9.6;;
61570;SDS011;47463;49.884;10.010;2023-06-22T14:55:00;16.2;;;9.9;;
61570;SDS011;47463;49.884;10.010;2023-06-22T15:00:00;16.1;;;8.5;;
61570;SDS011;47463;49.884;10.010;2023-06-22T15:05:00;18.4;;;8.7;;
61570;SDS011;47463;49.884;10.010;2023-06-22T15:10:00;18.4;;;8.7;;
61570;SDS011;47463;49.884;10.010;2023-06-22T15:15:00;15.5;;;8.8;;
61570;SDS011;47463;49.884;10.010;2023-06-22T15:20:00;16.4;;;8.2;;
61570;SDS011;47463;49.884;10.010;2023-06-22T15:25:00;14.7;;;8.3;;
61570;SDS011;47463;49.884;10.010;2023-06-22T15:30:00;14.8;;;7.8;;
61570;SDS011;47463;49.884;10.010;2023-06-22T15:35:00;15.9;;;7.7;;
61570;SDS011;47463;49.884;10.010;2023-06-22T15:40:00;15.9;;;7.7;;
61570;SDS011;47463;49.884;10.010;2023-06-22T15:45:00;21.8;;;7.7;;
61570;SDS011;47463;49.884;10.010;2023-06-22T15:50:00;18.7;;;7.9;;
61570;SDS011;47463;49.884;10.010;2023-06-22T15:55:00;21.1;;;7.6;;
61570;SDS011;47463;49.884;10.010;2023-06-22T16:00:00;15.4;;;7.8;;
61570;SDS011;47463;49.884;10.010;2023-06-22T16:05:00;17.4;;;5.9;;
61570;SDS011;47463;49.884;10.010;2023-06-22T16:10:00;17.4;;;5.9;;
61570;SDS011;47463;49.884;10.010;2023-06-22T16:15:00;18.6;;;6.9;;
61570;SDS011;47463;49.884;10.010;2023-06-22T16:20:00;19.7;;;6;;
61570;SDS011;47463;49.884;10.010;2023-06-22T16:25:00;21.5;;;6.2;;
61570;SDS011;47463;49.884;10.010;2023-06-22T16:30:00;17.7;;;6.2;;
61570;SDS011;47463;49.884;10.010;2023-06-22T16:35:00;17.5;;;7;;
61570;SDS011;47463;49.884;10.010;2023-06-22T16:40:00;17.5;;;7;;
61570;SDS011;47463;49.884;10.010;2023-06-22T16:45:00;19.7;;;6.2;;
61570;SDS011;47463;49.884;10.010;2023-06-22T16:50:00;15.6;;;5.9;;
61570;SDS011;47463;49.884;10.010;2023-06-22T16:55:00;19.4;;;6.4;;
61570;SDS011;47463;49.884;10.010;2023-06-22T17:00:00;16.5;;;7;;
61570;SDS011;47463;49.884;10.010;2023-06-22T17:05:00;16.3;;;7;;
61570;SDS011;47463;49.884;10.010;2023-06-22T17:10:00;16.3;;;7;;
61570;SDS011;47463;49.884;10.010;2023-06-22T17:15:00;19.4;;;6.4;;
61570;SDS011;47463;49.884;10.010;2023-06-22T17:20:00;20;;;6.8;;
61570;SDS011;47463;49.884;10.010;2023-06-22T17:25:00;16.8;;;6.2;;
61570;SDS011;47463;49.884;10.010;2023-06-22T17:30:04;20.3;;;6;;
61570;SDS011;47463;49.884;10.010;2023-06-22T17:35:00;15.5;;;6.3;;
61570;SDS011;47463;49.884;10.010;2023-06-22T17:40:00;15.5;;;6.3;;
61570;SDS011;47463;49.884;10.010;2023-06-22T17:45:00;18.8;;;6.6;;
61570;SDS011;47463;49.884;10.010;2023-06-22T17:50:03;17;;;6.1;;
61570;SDS011;47463;49.884;10.010;2023-06-22T17:55:00;20.1;;;6.3;;
61570;SDS011;47463;49.884;10.010;2023-06-22T18:00:00;16.4;;;6.3;;
61570;SDS011;47463;49.884;10.010;2023-06-22T18:05:02;14;;;6;;
61570;SDS011;47463;49.884;10.010;2023-06-22T18:10:00;14;;;6;;
61570;SDS011;47463;49.884;10.010;2023-06-22T18:15:00;17;;;6.4;;
61570;SDS011;47463;49.884;10.010;2023-06-22T18:20:00;22.3;;;6.8;;
61570;SDS011;47463;49.884;10.010;2023-06-22T18:25:00;17.3;;;6.7;;
61570;SDS011;47463;49.884;10.010;2023-06-22T18:30:00;16.9;;;6.5;;
61570;SDS011;47463;49.884;10.010;2023-06-22T18:35:00;16.1;;;6.4;;
61570;SDS011;47463;49.884;10.010;2023-06-22T18:40:00;16.1;;;6.4;;
61570;SDS011;47463;49.884;10.010;2023-06-22T18:45:00;17.1;;;7;;
61570;SDS011;47463;49.884;10.010;2023-06-22T18:50:03;19.9;;;7;;
61570;SDS011;47463;49.884;10.010;2023-06-22T18:55:01;22.9;;;7.4;;
61570;SDS011;47463;49.884;10.010;2023-06-22T19:00:00;18.9;;;7.7;;
61570;SDS011;47463;49.884;10.010;2023-06-22T19:05:05;19.6;;;7.5;;
61570;SDS011;47463;49.884;10.010;2023-06-22T19:10:30;19.6;;;7.5;;
61570;SDS011;47463;49.884;10.010;2023-06-22T19:15:00;15.5;;;7.5;;
61570;SDS011;47463;49.884;10.010;2023-06-22T19:20:00;17.5;;;7.8;;
61570;SDS011;47463;49.884;10.010;2023-06-22T19:25:00;20.1;;;7.5;;
61570;SDS011;47463;49.884;10.010;2023-06-22T19:30:00;17.7;;;7.7;;
61570;SDS011;47463;49.884;10.010;2023-06-22T19:35:00;16.4;;;8.1;;
61570;SDS011;47463;49.884;10.010;2023-06-22T19:40:00;16.4;;;8.1;;
61570;SDS011;47463;49.884;10.010;2023-06-22T19:45:00;16;;;7.2;;
61570;SDS011;47463;49.884;10.010;2023-06-22T19:50:00;21.7;;;8.2;;
61570;SDS011;47463;49.884;10.010;2023-06-22T19:55:00;18.1;;;8.2;;
61570;SDS011;47463;49.884;10.010;2023-06-22T20:00:00;20;;;7.5;;
61570;SDS011;47463;49.884;10.010;2023-06-22T20:05:03;19;;;8.4;;
61570;SDS011;47463;49.884;10.010;2023-06-22T20:10:08;19;;;8.4;;
61570;SDS011;47463;49.884;10.010;2023-06-22T20:15:12;18.2;;;8.6;;
61570;SDS011;47463;49.884;10.010;2023-06-22T20:20:00;18.8;;;9;;
61570;SDS011;47463;49.884;10.010;2023-06-22T20:25:00;21.7;;;9.6;;
61570;SDS011;47463;49.884;10.010;2023-06-22T20:30:11;16.9;;;9.4;;
61570;SDS011;47463;49.884;10.010;2023-06-22T20:35:01;17.7;;;9.7;;
61570;SDS011;47463;49.884;10.010;2023-06-22T20:40:00;17.7;;;9.7;;
61570;SDS011;47463;49.884;10.010;2023-06-22T20:45:00;19.5;;;9.8;;
61570;SDS011;47463;49.884;10.010;2023-06-22T20:50:00;20.8;;;10.4;;
61570;SDS011;47463;49.884;10.010;2023-06-22T20:55:00;19.5;;;10.5;;
61570;SDS011;47463;49.884;10.010;2023-06-22T21:00:00;16.3;;;10;;
61570;SDS011;47463;49.884;10.010;2023-06-22T21:05:00;17.4;;;10;;
61570;SDS011;47463;49.884;10.010;2023-06-22T21:10:00;17.4;;;10;;
61570;SDS011;47463;49.884;10.010;2023-06-22T21:15:00;19;;;10.4;;
61570;SDS011;47463;49.884;10.010;2023-06-22T21:20:00;17.9;;;10;;
61570;SDS011;47463;49.884;10.010;2023-06-22T21:25:04;17.2;;;9.2;;
61570;SDS011;47463;49.884;10.010;2023-06-22T21:30:00;18.1;;;9.9;;
61570;SDS011;47463;49.884;10.010;2023-06-22T21:35:00;15.6;;;9.6;;
61570;SDS011;47463;49.884;10.010;2023-06-22T21:40:00;15.6;;;9.6;;
61570;SDS011;47463;49.884;10.010;2023-06-22T21:45:00;16.7;;;10.1;;
61570;SDS011;47463;49.884;10.010;2023-06-22T21:50:00;21.3;;;11.6;;
61570;SDS011;47463;49.884;10.010;2023-06-22T21:55:00;20.8;;;11.6;;
61570;SDS011;47463;49.884;10.010;2023-06-22T22:00:00;22.9;;;12.4;;
61570;SDS011;47463;49.884;10.010;2023-06-22T22:05:00;21.7;;;11.9;;
61570;SDS011;47463;49.884;10.010;2023-06-22T22:10:00;21.7;;;11.9;;
61570;SDS011;47463;49.884;10.010;2023-06-22T22:15:00;16.9;;;11.3;;
61570;SDS011;47463;49.884;10.010;2023-06-22T22:20:00;16.6;;;10.3;;
61570;SDS011;47463;49.884;10.010;2023-06-22T22:25:00;17.1;;;9;;
61570;SDS011;47463;49.884;10.010;2023-06-22T22:30:00;15.9;;;8.2;;
61570;SDS011;47463;49.884;10.010;2023-06-22T22:35:00;13.5;;;7.1;;
61570;SDS011;47463;49.884;10.010;2023-06-22T22:40:00;13.5;;;7.1;;
61570;SDS011;47463;49.884;10.010;2023-06-22T22:45:00;16;;;7.3;;
61570;SDS011;47463;49.884;10.010;2023-06-22T22:50:00;17.5;;;6.8;;
61570;SDS011;47463;49.884;10.010;2023-06-22T22:55:00;12;;;6;;
61570;SDS011;47463;49.884;10.010;2023-06-22T23:00:00;7.5;;;4.2;;
61570;SDS011;47463;49.884;10.010;2023-06-22T23:05:00;3.8;;;2.2;;
61570;SDS011;47463;49.884;10.010;2023-06-22T23:10:00;3.8;;;2.2;;
61570;SDS011;47463;49.884;10.010;2023-06-22T23:15:00;3;;;1.8;;
61570;SDS011;47463;49.884;10.010;2023-06-22T23:20:00;4;;;1.6;;
61570;SDS011;47463;49.884;10.010;2023-06-22T23:25:00;2.2;;;1.7;;
61570;SDS011;47463;49.884;10.010;2023-06-22T23:30:00;2.6;;;1.7;;
61570;SDS011;47463;49.884;10.010;2023-06-22T23:35:00;2.4;;;1.7;;
61570;SDS011;47463;49.884;10.010;2023-06-22T23:40:00;2.4;;;1.7;;
61570;SDS011;47463;49.884;10.010;2023-06-22T23:45:00;3.3;;;1.7;;
61570;SDS011;47463;49.884;10.010;2023-06-22T23:50:00;2.1;;;1.6;;
61570;SDS011;47463;49.884;10.010;2023-06-22T23:55:00;2.1;;;1.5;;
